PWSweather.com
Personal Weather Stations
Station Observations
CANDIOTINO
Barrio Candioti Norte, Santa FeAR 3000

Barrio Candioti NorteSanta FeAR 3000

Lat: -31.632778, Lon: -60.695556

Elevation: 69

Station Type: WH-1081

http://www.eltiempoensantafe.com.ar

High Low Average
Temperature 62.6°F17.0°C 52.9°F11.6°C 57.6°F14.2°C
Dew Point 48.5°F9.2°C 36.7°F2.6°C 43.5°F6.4°C
Winds 15.2 mph 24.5 kmh 2.2 mph 3.5 kmh 9.0 mph ESE14.5 kmh ESE
Wind Gusts 25.9 mph41.7 kmh 7.6 mph12.2 kmh 16.0 mph25.7 kmh
Humidity 85% 38% 60%
Pressure 30.14 in1020.7 mb 29.94 in1013.9 mb -
Precipitation 0.08 in2.0 mm - -
Hour Temp Dew Point Humidity Winds Wind Gusts Pressure Precip Precip Rate Daily Precip Total
12:00 AM 62.6°F17.0°C 36.7°F2.6°C 38% 6.9 mph E11.1 kmh E 9.2 mph14.8 kmh 30.09 in1019.0 mb 0.00 in0.0 mm 0.00 in0.0 mm 0.00 in0.0 mm
12:15 AM 62.2°F16.8°C 38.3°F3.5°C 41% 5.4 mph SE8.7 kmh SE 7.6 mph12.2 kmh 30.09 in1019.0 mb 0.00 in0.0 mm 0.00 in0.0 mm 0.00 in0.0 mm
12:30 AM 62.1°F16.7°C 38.1°F3.4°C 41% 7.6 mph SE12.2 kmh SE 13.0 mph20.9 kmh 30.08 in1018.6 mb 0.00 in0.0 mm 0.00 in0.0 mm 0.00 in0.0 mm
12:45 AM 62.1°F16.7°C 38.1°F3.4°C 41% 7.6 mph SE12.2 kmh SE 13.0 mph20.9 kmh 30.09 in1019.0 mb 0.00 in0.0 mm 0.00 in0.0 mm 0.00 in0.0 mm
01:00 AM 62.1°F16.7°C 38.1°F3.4°C 41% 7.6 mph SE12.2 kmh SE 13.0 mph20.9 kmh 30.09 in1019.0 mb 0.00 in0.0 mm 0.00 in0.0 mm 0.00 in0.0 mm
01:15 AM 60.4°F15.8°C 38.4°F3.6°C 44% 12.1 mph SE19.5 kmh SE 17.4 mph28.0 kmh 30.08 in1018.6 mb 0.00 in0.0 mm 0.00 in0.0 mm 0.00 in0.0 mm
01:30 AM 60.3°F15.7°C 38.3°F3.5°C 44% 9.2 mph SE14.8 kmh SE 17.4 mph28.0 kmh 30.08 in1018.6 mb 0.00 in0.0 mm 0.00 in0.0 mm 0.00 in0.0 mm
01:45 AM 60.3°F15.7°C 38.3°F3.5°C 44% 9.2 mph SE14.8 kmh SE 16.8 mph27.0 kmh 30.09 in1019.0 mb 0.00 in0.0 mm 0.00 in0.0 mm 0.00 in0.0 mm
02:00 AM 60.3°F15.7°C 38.3°F3.5°C 44% 9.2 mph SE14.8 kmh SE 16.8 mph27.0 kmh 30.09 in1019.0 mb 0.00 in0.0 mm 0.00 in0.0 mm 0.00 in0.0 mm
02:15 AM 60.3°F15.7°C 38.3°F3.5°C 44% 9.2 mph SE14.8 kmh SE 16.8 mph27.0 kmh 30.09 in1019.0 mb 0.00 in0.0 mm 0.00 in0.0 mm 0.00 in0.0 mm
02:30 AM 59.5°F15.3°C 39.3°F4.1°C 47% 9.8 mph NE15.8 kmh NE 13.6 mph21.9 kmh 30.08 in1018.6 mb 0.00 in0.0 mm 0.00 in0.0 mm 0.00 in0.0 mm
02:45 AM 59.5°F15.3°C 39.3°F4.1°C 47% 9.8 mph NE15.8 kmh NE 13.6 mph21.9 kmh 30.07 in1018.3 mb 0.00 in0.0 mm 0.00 in0.0 mm 0.00 in0.0 mm
03:00 AM 59.2°F15.1°C 38.4°F3.6°C 46% 9.2 mph ENE14.8 kmh ENE 14.5 mph23.3 kmh 30.06 in1017.9 mb 0.00 in0.0 mm 0.00 in0.0 mm 0.00 in0.0 mm
03:15 AM 59.2°F15.1°C 38.4°F3.6°C 46% 9.2 mph NE14.8 kmh NE 14.5 mph23.3 kmh 30.06 in1017.9 mb 0.00 in0.0 mm 0.00 in0.0 mm 0.00 in0.0 mm
03:30 AM 59.2°F15.1°C 38.4°F3.6°C 46% 9.2 mph NE14.8 kmh NE 14.5 mph23.3 kmh 30.06 in1017.9 mb 0.00 in0.0 mm 0.00 in0.0 mm 0.00 in0.0 mm
03:45 AM 59.2°F15.1°C 38.4°F3.6°C 46% 9.2 mph NE14.8 kmh NE 14.5 mph23.3 kmh 30.05 in1017.6 mb 0.00 in0.0 mm 0.00 in0.0 mm 0.00 in0.0 mm
04:00 AM 58.5°F14.7°C 38.9°F3.8°C 48% 7.6 mph SE12.2 kmh SE 12.1 mph19.5 kmh 30.05 in1017.6 mb 0.00 in0.0 mm 0.00 in0.0 mm 0.00 in0.0 mm
04:15 AM 58.5°F14.7°C 38.9°F3.8°C 48% 12.1 mph E19.5 kmh E 15.2 mph24.5 kmh 30.05 in1017.6 mb 0.00 in0.0 mm 0.00 in0.0 mm 0.00 in0.0 mm
04:30 AM 58.5°F14.7°C 39.4°F4.1°C 49% 7.6 mph E12.2 kmh E 12.1 mph19.5 kmh 30.04 in1017.3 mb 0.00 in0.0 mm 0.00 in0.0 mm 0.00 in0.0 mm
04:45 AM 58.5°F14.7°C 39.4°F4.1°C 49% 7.6 mph E12.2 kmh E 12.1 mph19.5 kmh 30.05 in1017.6 mb 0.00 in0.0 mm 0.00 in0.0 mm 0.00 in0.0 mm
05:00 AM 58.3°F14.6°C 39.2°F4.0°C 49% 7.6 mph SE12.2 kmh SE 12.1 mph19.5 kmh 30.04 in1017.3 mb 0.00 in0.0 mm 0.00 in0.0 mm 0.00 in0.0 mm
05:15 AM 58.3°F14.6°C 39.2°F4.0°C 49% 7.6 mph SE12.2 kmh SE 12.1 mph19.5 kmh 30.05 in1017.6 mb 0.00 in0.0 mm 0.00 in0.0 mm 0.00 in0.0 mm
05:30 AM 58.5°F14.7°C 39.4°F4.1°C 49% 4.5 mph E7.2 kmh E 9.2 mph14.8 kmh 30.06 in1017.9 mb 0.00 in0.0 mm 0.00 in0.0 mm 0.00 in0.0 mm
05:45 AM 58.5°F14.7°C 39.4°F4.1°C 49% 4.5 mph E7.2 kmh E 9.2 mph14.8 kmh 30.06 in1017.9 mb 0.00 in0.0 mm 0.00 in0.0 mm 0.00 in0.0 mm
06:00 AM 58.1°F14.5°C 39.6°F4.2°C 50% 10.7 mph SE17.2 kmh SE 15.2 mph24.5 kmh 30.06 in1017.9 mb 0.00 in0.0 mm 0.00 in0.0 mm 0.00 in0.0 mm
06:15 AM 58.1°F14.5°C 39.6°F4.2°C 50% 10.7 mph SE17.2 kmh SE 15.2 mph24.5 kmh 30.07 in1018.3 mb 0.00 in0.0 mm 0.00 in0.0 mm 0.00 in0.0 mm
06:30 AM 58.1°F14.5°C 39.6°F4.2°C 50% 10.7 mph SE17.2 kmh SE 15.2 mph24.5 kmh 30.07 in1018.3 mb 0.00 in0.0 mm 0.00 in0.0 mm 0.00 in0.0 mm
06:45 AM 58.1°F14.5°C 39.6°F4.2°C 50% 10.7 mph SE17.2 kmh SE 15.2 mph24.5 kmh 30.08 in1018.6 mb 0.00 in0.0 mm 0.00 in0.0 mm 0.00 in0.0 mm
07:00 AM 58.1°F14.5°C 39.6°F4.2°C 50% 10.7 mph SE17.2 kmh SE 15.2 mph24.5 kmh 30.07 in1018.3 mb 0.00 in0.0 mm 0.00 in0.0 mm 0.00 in0.0 mm
07:15 AM 57.2°F14.0°C 41.2°F5.1°C 55% 9.8 mph SE15.8 kmh SE 13.6 mph21.9 kmh 30.09 in1019.0 mb 0.00 in0.0 mm 0.00 in0.0 mm 0.00 in0.0 mm
07:30 AM 57.0°F13.9°C 41.9°F5.5°C 57% 10.7 mph SE17.2 kmh SE 15.9 mph25.6 kmh 30.12 in1020.0 mb 0.00 in0.0 mm 0.00 in0.0 mm 0.00 in0.0 mm
07:45 AM 55.9°F13.3°C 44.4°F6.9°C 65% 4.5 mph SE7.2 kmh SE 13.6 mph21.9 kmh 30.10 in1019.3 mb 0.01 in0.3 mm 0.04 in1.0 mm 0.01 in0.3 mm
08:00 AM 54.9°F12.7°C 44.5°F6.9°C 68% 6.9 mph SE11.1 kmh SE 13.6 mph21.9 kmh 30.11 in1019.6 mb 0.01 in0.3 mm 0.00 in0.0 mm 0.01 in0.3 mm
08:15 AM 55.0°F12.8°C 44.7°F7.1°C 68% 4.5 mph SE7.2 kmh SE 15.9 mph25.6 kmh 30.11 in1019.6 mb 0.01 in0.3 mm 0.00 in0.0 mm 0.01 in0.3 mm
08:30 AM 55.0°F12.8°C 44.7°F7.1°C 68% 6.0 mph SE9.7 kmh SE 15.2 mph24.5 kmh 30.12 in1020.0 mb 0.01 in0.3 mm 0.00 in0.0 mm 0.01 in0.3 mm
08:45 AM 55.2°F12.9°C 45.6°F7.6°C 70% 5.4 mph SE8.7 kmh SE 15.9 mph25.6 kmh 30.11 in1019.6 mb 0.00 in0.0 mm 0.00 in0.0 mm 0.01 in0.3 mm
09:00 AM 55.4°F13.0°C 45.4°F7.4°C 69% 5.4 mph E8.7 kmh E 13.6 mph21.9 kmh 30.12 in1020.0 mb 0.00 in0.0 mm 0.00 in0.0 mm 0.01 in0.3 mm
09:15 AM 55.4°F13.0°C 45.4°F7.4°C 69% 6.9 mph ESE11.1 kmh ESE 11.4 mph18.3 kmh 30.12 in1020.0 mb 0.00 in0.0 mm 0.00 in0.0 mm 0.01 in0.3 mm
09:30 AM 54.9°F12.7°C 45.6°F7.6°C 71% 6.0 mph E9.7 kmh E 13.0 mph20.9 kmh 30.14 in1020.7 mb 0.01 in0.3 mm 0.04 in1.0 mm 0.02 in0.5 mm
09:45 AM 53.6°F12.0°C 45.9°F7.7°C 75% 3.8 mph ESE6.1 kmh ESE 9.8 mph15.8 kmh 30.12 in1020.0 mb 0.05 in1.3 mm 0.16 in4.1 mm 0.06 in1.5 mm
10:00 AM 53.1°F11.7°C 46.7°F8.2°C 79% 7.6 mph SE12.2 kmh SE 18.3 mph29.5 kmh 30.10 in1019.3 mb 0.07 in1.8 mm 0.03 in0.8 mm 0.08 in2.0 mm
10:15 AM 52.9°F11.6°C 46.9°F8.3°C 80% 5.4 mph E8.7 kmh E 18.3 mph29.5 kmh 30.11 in1019.6 mb 0.06 in1.5 mm 0.00 in0.0 mm 0.08 in2.0 mm
10:30 AM 53.2°F11.8°C 47.2°F8.4°C 80% 2.2 mph SE3.5 kmh SE 16.8 mph27.0 kmh 30.12 in1020.0 mb 0.06 in1.5 mm 0.00 in0.0 mm 0.08 in2.0 mm
10:45 AM 54.0°F12.2°C 47.3°F8.5°C 78% 3.8 mph ESE6.1 kmh ESE 11.4 mph18.3 kmh 30.11 in1019.6 mb 0.02 in0.5 mm 0.00 in0.0 mm 0.08 in2.0 mm
11:00 AM 54.7°F12.6°C 46.9°F8.3°C 75% 10.7 mph ESE17.2 kmh ESE 15.9 mph25.6 kmh 30.12 in1020.0 mb 0.00 in0.0 mm 0.00 in0.0 mm 0.08 in2.0 mm
11:15 AM 55.8°F13.2°C 48.0°F8.9°C 75% 5.4 mph ESE8.7 kmh ESE 17.4 mph28.0 kmh 30.10 in1019.3 mb 0.00 in0.0 mm 0.00 in0.0 mm 0.08 in2.0 mm
11:30 AM 56.7°F13.7°C 47.4°F8.6°C 71% 7.6 mph SE12.2 kmh SE 19.7 mph31.7 kmh 30.10 in1019.3 mb 0.00 in0.0 mm 0.00 in0.0 mm 0.08 in2.0 mm
11:45 AM 57.7°F14.3°C 47.3°F8.5°C 68% 9.8 mph ESE15.8 kmh ESE 18.3 mph29.5 kmh 30.10 in1019.3 mb 0.00 in0.0 mm 0.00 in0.0 mm 0.08 in2.0 mm
12:00 PM 57.7°F14.3°C 46.1°F7.8°C 65% 10.7 mph ESE17.2 kmh ESE 19.7 mph31.7 kmh 30.09 in1019.0 mb 0.00 in0.0 mm 0.00 in0.0 mm 0.08 in2.0 mm
12:15 PM 59.5°F15.3°C 46.9°F8.3°C 63% 15.2 mph SE24.5 kmh SE 22.8 mph36.7 kmh 30.07 in1018.3 mb 0.00 in0.0 mm 0.00 in0.0 mm 0.08 in2.0 mm
12:30 PM 60.1°F15.6°C 47.5°F8.6°C 63% 14.5 mph ESE23.3 kmh ESE 23.5 mph37.8 kmh 30.06 in1017.9 mb 0.00 in0.0 mm 0.00 in0.0 mm 0.08 in2.0 mm
12:45 PM 61.0°F16.1°C 47.5°F8.6°C 61% 10.7 mph E17.2 kmh E 21.3 mph34.3 kmh 30.06 in1017.9 mb 0.00 in0.0 mm 0.00 in0.0 mm 0.08 in2.0 mm
01:00 PM 60.4°F15.8°C 47.4°F8.6°C 62% 10.7 mph ESE17.2 kmh ESE 16.8 mph27.0 kmh 30.04 in1017.3 mb 0.00 in0.0 mm 0.00 in0.0 mm 0.08 in2.0 mm
01:15 PM 60.6°F15.9°C 46.7°F8.2°C 60% 12.1 mph SE19.5 kmh SE 21.3 mph34.3 kmh 30.04 in1017.3 mb 0.00 in0.0 mm 0.00 in0.0 mm 0.08 in2.0 mm
01:30 PM 61.0°F16.1°C 45.7°F7.6°C 57% 10.7 mph ESE17.2 kmh ESE 20.6 mph33.2 kmh 30.04 in1017.3 mb 0.00 in0.0 mm 0.00 in0.0 mm 0.08 in2.0 mm
01:45 PM 59.9°F15.5°C 46.4°F8.0°C 61% 11.4 mph ESE18.3 kmh ESE 19.7 mph31.7 kmh 30.02 in1016.6 mb 0.00 in0.0 mm 0.00 in0.0 mm 0.08 in2.0 mm
02:00 PM 59.9°F15.5°C 46.4°F8.0°C 61% 8.3 mph SE13.4 kmh SE 16.8 mph27.0 kmh 30.02 in1016.6 mb 0.00 in0.0 mm 0.00 in0.0 mm 0.08 in2.0 mm
02:15 PM 60.1°F15.6°C 46.2°F7.9°C 60% 6.0 mph SE9.7 kmh SE 19.7 mph31.7 kmh 30.01 in1016.3 mb 0.00 in0.0 mm 0.00 in0.0 mm 0.08 in2.0 mm
02:30 PM 61.3°F16.3°C 46.0°F7.8°C 57% 11.4 mph SE18.3 kmh SE 21.3 mph34.3 kmh 29.99 in1015.6 mb 0.00 in0.0 mm 0.00 in0.0 mm 0.08 in2.0 mm
02:45 PM 61.0°F16.1°C 46.1°F7.8°C 58% 9.8 mph ESE15.8 kmh ESE 19.0 mph30.6 kmh 29.98 in1015.2 mb 0.00 in0.0 mm 0.00 in0.0 mm 0.08 in2.0 mm
03:00 PM 59.9°F15.5°C 46.9°F8.3°C 62% 9.8 mph SE15.8 kmh SE 24.4 mph39.3 kmh 29.97 in1014.9 mb 0.00 in0.0 mm 0.00 in0.0 mm 0.08 in2.0 mm
03:15 PM 59.9°F15.5°C 46.0°F7.8°C 60% 9.2 mph SE14.8 kmh SE 16.8 mph27.0 kmh 29.97 in1014.9 mb 0.00 in0.0 mm 0.00 in0.0 mm 0.08 in2.0 mm
03:30 PM 59.5°F15.3°C 44.8°F7.1°C 58% 15.2 mph ESE24.5 kmh ESE 21.3 mph34.3 kmh 29.96 in1014.6 mb 0.00 in0.0 mm 0.00 in0.0 mm 0.08 in2.0 mm
03:45 PM 59.4°F15.2°C 44.6°F7.0°C 58% 11.4 mph ESE18.3 kmh ESE 17.4 mph28.0 kmh 29.96 in1014.6 mb 0.00 in0.0 mm 0.00 in0.0 mm 0.08 in2.0 mm
04:00 PM 59.0°F15.0°C 44.3°F6.8°C 58% 8.3 mph SE13.4 kmh SE 19.0 mph30.6 kmh 29.96 in1014.6 mb 0.00 in0.0 mm 0.00 in0.0 mm 0.08 in2.0 mm
04:15 PM 58.8°F14.9°C 44.5°F6.9°C 59% 8.3 mph ESE13.4 kmh ESE 19.7 mph31.7 kmh 29.95 in1014.2 mb 0.00 in0.0 mm 0.00 in0.0 mm 0.08 in2.0 mm
04:30 PM 58.6°F14.8°C 44.4°F6.9°C 59% 6.0 mph SE9.7 kmh SE 15.2 mph24.5 kmh 29.94 in1013.9 mb 0.00 in0.0 mm 0.00 in0.0 mm 0.08 in2.0 mm
04:45 PM 58.5°F14.7°C 44.2°F6.8°C 59% 6.9 mph SE11.1 kmh SE 22.8 mph36.7 kmh 29.94 in1013.9 mb 0.00 in0.0 mm 0.00 in0.0 mm 0.08 in2.0 mm
05:00 PM 58.3°F14.6°C 44.5°F6.9°C 60% 13.0 mph SE20.9 kmh SE 20.6 mph33.2 kmh 29.94 in1013.9 mb 0.00 in0.0 mm 0.00 in0.0 mm 0.08 in2.0 mm
05:15 PM 57.6°F14.2°C 45.5°F7.5°C 64% 5.4 mph SE8.7 kmh SE 18.3 mph29.5 kmh 29.96 in1014.6 mb 0.00 in0.0 mm 0.00 in0.0 mm 0.08 in2.0 mm
05:30 PM 57.4°F14.1°C 45.7°F7.6°C 65% 7.6 mph SE12.2 kmh SE 14.5 mph23.3 kmh 29.96 in1014.6 mb 0.00 in0.0 mm 0.00 in0.0 mm 0.08 in2.0 mm
05:45 PM 57.2°F14.0°C 44.3°F6.8°C 62% 9.2 mph SE14.8 kmh SE 18.3 mph29.5 kmh 29.95 in1014.2 mb 0.00 in0.0 mm 0.00 in0.0 mm 0.08 in2.0 mm
06:00 PM 56.8°F13.8°C 44.8°F7.1°C 64% 12.1 mph SE19.5 kmh SE 25.1 mph40.4 kmh 29.96 in1014.6 mb 0.00 in0.0 mm 0.00 in0.0 mm 0.08 in2.0 mm
06:15 PM 56.8°F13.8°C 45.2°F7.3°C 65% 13.6 mph SE21.9 kmh SE 20.6 mph33.2 kmh 29.96 in1014.6 mb 0.00 in0.0 mm 0.00 in0.0 mm 0.08 in2.0 mm
06:30 PM 56.5°F13.6°C 45.3°F7.4°C 66% 9.8 mph SE15.8 kmh SE 19.0 mph30.6 kmh 29.98 in1015.2 mb 0.00 in0.0 mm 0.00 in0.0 mm 0.08 in2.0 mm
06:45 PM 56.5°F13.6°C 45.3°F7.4°C 66% 12.1 mph SE19.5 kmh SE 15.2 mph24.5 kmh 30.00 in1015.9 mb 0.00 in0.0 mm 0.00 in0.0 mm 0.08 in2.0 mm
07:00 PM 56.3°F13.5°C 45.1°F7.3°C 66% 9.8 mph SE15.8 kmh SE 20.6 mph33.2 kmh 29.97 in1014.9 mb 0.00 in0.0 mm 0.00 in0.0 mm 0.08 in2.0 mm
07:15 PM 55.8°F13.2°C 44.6°F7.0°C 66% 14.5 mph SE23.3 kmh SE 25.9 mph41.7 kmh 29.95 in1014.2 mb 0.00 in0.0 mm 0.00 in0.0 mm 0.08 in2.0 mm
07:30 PM 55.4°F13.0°C 44.6°F7.0°C 67% 10.7 mph E17.2 kmh E 20.6 mph33.2 kmh 29.94 in1013.9 mb 0.00 in0.0 mm 0.00 in0.0 mm 0.08 in2.0 mm
07:45 PM 55.2°F12.9°C 45.6°F7.6°C 70% 13.0 mph SE20.9 kmh SE 22.8 mph36.7 kmh 29.94 in1013.9 mb 0.00 in0.0 mm 0.00 in0.0 mm 0.08 in2.0 mm
08:00 PM 54.9°F12.7°C 44.9°F7.2°C 69% 11.4 mph E18.3 kmh E 18.3 mph29.5 kmh 29.97 in1014.9 mb 0.00 in0.0 mm 0.00 in0.0 mm 0.08 in2.0 mm
08:15 PM 54.7°F12.6°C 44.7°F7.1°C 69% 9.8 mph ESE15.8 kmh ESE 17.4 mph28.0 kmh 29.98 in1015.2 mb 0.00 in0.0 mm 0.00 in0.0 mm 0.08 in2.0 mm
08:30 PM 54.5°F12.5°C 44.9°F7.2°C 70% 6.0 mph SE9.7 kmh SE 18.3 mph29.5 kmh 29.96 in1014.6 mb 0.00 in0.0 mm 0.00 in0.0 mm 0.08 in2.0 mm
08:45 PM 54.1°F12.3°C 45.0°F7.2°C 71% 8.3 mph ESE13.4 kmh ESE 22.1 mph35.6 kmh 29.95 in1014.2 mb 0.00 in0.0 mm 0.00 in0.0 mm 0.08 in2.0 mm
09:00 PM 54.3°F12.4°C 45.1°F7.3°C 71% 9.8 mph E15.8 kmh E 15.9 mph25.6 kmh 29.96 in1014.6 mb 0.00 in0.0 mm 0.00 in0.0 mm 0.08 in2.0 mm
09:15 PM 54.9°F12.7°C 45.3°F7.4°C 70% 7.6 mph ESE12.2 kmh ESE 15.2 mph24.5 kmh 29.96 in1014.6 mb 0.00 in0.0 mm 0.00 in0.0 mm 0.08 in2.0 mm
09:30 PM 55.2°F12.9°C 45.2°F7.3°C 69% 5.4 mph E8.7 kmh E 13.0 mph20.9 kmh 29.96 in1014.6 mb 0.00 in0.0 mm 0.00 in0.0 mm 0.08 in2.0 mm
09:45 PM 55.6°F13.1°C 44.4°F6.9°C 66% 3.1 mph ESE5.0 kmh ESE 12.1 mph19.5 kmh 29.96 in1014.6 mb 0.00 in0.0 mm 0.00 in0.0 mm 0.08 in2.0 mm
10:00 PM 55.6°F13.1°C 44.4°F6.9°C 66% 7.6 mph ESE12.2 kmh ESE 13.0 mph20.9 kmh 29.97 in1014.9 mb 0.00 in0.0 mm 0.00 in0.0 mm 0.08 in2.0 mm
10:15 PM 55.9°F13.3°C 44.4°F6.9°C 65% 6.0 mph ESE9.7 kmh ESE 12.1 mph19.5 kmh 29.97 in1014.9 mb 0.00 in0.0 mm 0.00 in0.0 mm 0.08 in2.0 mm
10:30 PM 56.3°F13.5°C 43.9°F6.6°C 63% 7.6 mph E12.2 kmh E 14.5 mph23.3 kmh 29.96 in1014.6 mb 0.00 in0.0 mm 0.00 in0.0 mm 0.08 in2.0 mm
10:45 PM 56.7°F13.7°C 43.4°F6.3°C 61% 5.4 mph SE8.7 kmh SE 15.9 mph25.6 kmh 29.98 in1015.2 mb 0.00 in0.0 mm 0.00 in0.0 mm 0.08 in2.0 mm
11:00 PM 56.5°F13.6°C 44.9°F7.2°C 65% 6.0 mph SE9.7 kmh SE 9.2 mph14.8 kmh 29.99 in1015.6 mb 0.00 in0.0 mm 0.00 in0.0 mm 0.08 in2.0 mm
11:15 PM 55.2°F12.9°C 46.0°F7.8°C 71% 3.8 mph SE6.1 kmh SE 10.7 mph17.2 kmh 29.97 in1014.9 mb 0.00 in0.0 mm 0.00 in0.0 mm 0.08 in2.0 mm
11:30 PM 52.9°F11.6°C 47.5°F8.6°C 82% 6.0 mph S9.7 kmh S 11.4 mph18.3 kmh 29.95 in1014.2 mb 0.00 in0.0 mm 0.00 in0.0 mm 0.08 in2.0 mm
11:45 PM 52.9°F11.6°C 48.5°F9.2°C 85% 5.4 mph S8.7 kmh S 10.7 mph17.2 kmh 29.95 in1014.2 mb 0.00 in0.0 mm 0.00 in0.0 mm 0.08 in2.0 mm